sensor_id;sensor_type;location;lat;lon;timestamp;pressure;altitude;pressure_sealevel;temperature;humidity
56912;BME280;42800;53.928;27.662;2023-01-26T00:00:43;100378.13;;;-0.51;100.00
56912;BME280;42800;53.928;27.662;2023-01-26T00:03:09;100376.09;;;-0.33;100.00
56912;BME280;42800;53.928;27.662;2023-01-26T00:05:36;100361.72;;;-0.49;100.00
56912;BME280;42800;53.928;27.662;2023-01-26T00:08:03;100360.94;;;-0.92;100.00
56912;BME280;42800;53.928;27.662;2023-01-26T00:10:30;100388.56;;;-0.69;100.00
56912;BME280;42800;53.928;27.662;2023-01-26T00:12:56;100392.53;;;-0.77;100.00
56912;BME280;42800;53.928;27.662;2023-01-26T00:15:23;100398.94;;;-0.46;100.00
56912;BME280;42800;53.928;27.662;2023-01-26T00:17:49;100395.94;;;-0.50;100.00
56912;BME280;42800;53.928;27.662;2023-01-26T00:20:16;100388.97;;;-0.88;100.00
56912;BME280;42800;53.928;27.662;2023-01-26T00:22:42;100405.81;;;-0.60;100.00
56912;BME280;42800;53.928;27.662;2023-01-26T00:25:09;100399.09;;;-0.63;100.00
56912;BME280;42800;53.928;27.662;2023-01-26T00:27:36;100404.19;;;-0.66;100.00
56912;BME280;42800;53.928;27.662;2023-01-26T00:30:03;100408.09;;;-0.37;100.00
56912;BME280;42800;53.928;27.662;2023-01-26T00:32:29;100411.66;;;-0.74;100.00
56912;BME280;42800;53.928;27.662;2023-01-26T00:34:55;100406.69;;;-0.55;100.00
56912;BME280;42800;53.928;27.662;2023-01-26T00:37:22;100398.97;;;-0.36;100.00
56912;BME280;42800;53.928;27.662;2023-01-26T00:39:48;100384.13;;;-0.38;100.00
56912;BME280;42800;53.928;27.662;2023-01-26T00:42:14;100387.41;;;-0.79;100.00
56912;BME280;42800;53.928;27.662;2023-01-26T00:44:41;100396.78;;;-0.86;100.00
56912;BME280;42800;53.928;27.662;2023-01-26T00:47:10;100403.06;;;-0.76;100.00
56912;BME280;42800;53.928;27.662;2023-01-26T00:49:36;100418.94;;;-0.74;100.00
56912;BME280;42800;53.928;27.662;2023-01-26T00:52:03;100414.34;;;-0.79;100.00
56912;BME280;42800;53.928;27.662;2023-01-26T00:54:30;100422.03;;;-0.55;100.00
56912;BME280;42800;53.928;27.662;2023-01-26T00:56:56;100429.78;;;-0.16;100.00
56912;BME280;42800;53.928;27.662;2023-01-26T00:59:22;100410.41;;;-0.08;100.00
56912;BME280;42800;53.928;27.662;2023-01-26T01:01:49;100396.03;;;-0.24;100.00
56912;BME280;42800;53.928;27.662;2023-01-26T01:04:16;100395.00;;;-0.18;100.00
56912;BME280;42800;53.928;27.662;2023-01-26T01:06:42;100384.28;;;-0.03;100.00
56912;BME280;42800;53.928;27.662;2023-01-26T01:09:08;100370.00;;;-0.03;100.00
56912;BME280;42800;53.928;27.662;2023-01-26T01:11:35;100366.78;;;0.05;100.00
56912;BME280;42800;53.928;27.662;2023-01-26T01:14:01;100356.66;;;-0.35;100.00
56912;BME280;42800;53.928;27.662;2023-01-26T01:16:27;100357.09;;;-0.59;100.00
56912;BME280;42800;53.928;27.662;2023-01-26T01:18:55;100377.88;;;-0.49;100.00
56912;BME280;42800;53.928;27.662;2023-01-26T01:21:22;100387.34;;;-0.46;100.00
56912;BME280;42800;53.928;27.662;2023-01-26T01:23:48;100387.72;;;-0.22;100.00
56912;BME280;42800;53.928;27.662;2023-01-26T01:26:14;100373.69;;;-0.30;100.00
56912;BME280;42800;53.928;27.662;2023-01-26T01:28:41;100368.50;;;-0.41;100.00
56912;BME280;42800;53.928;27.662;2023-01-26T01:31:10;100376.47;;;0.01;100.00
56912;BME280;42800;53.928;27.662;2023-01-26T01:33:36;100364.78;;;-0.25;100.00
56912;BME280;42800;53.928;27.662;2023-01-26T01:36:05;100367.81;;;-0.64;100.00
56912;BME280;42800;53.928;27.662;2023-01-26T01:38:32;100380.63;;;-0.86;100.00
56912;BME280;42800;53.928;27.662;2023-01-26T01:40:59;100396.34;;;-0.73;100.00
56912;BME280;42800;53.928;27.662;2023-01-26T01:43:25;100401.19;;;-0.70;100.00
56912;BME280;42800;53.928;27.662;2023-01-26T01:45:52;100387.72;;;-0.70;100.00
56912;BME280;42800;53.928;27.662;2023-01-26T01:48:22;100385.94;;;-0.54;100.00
56912;BME280;42800;53.928;27.662;2023-01-26T01:50:52;100387.66;;;-0.80;100.00
56912;BME280;42800;53.928;27.662;2023-01-26T01:53:23;100373.81;;;-0.99;100.00
56912;BME280;42800;53.928;27.662;2023-01-26T01:55:54;100378.66;;;-0.54;100.00
56912;BME280;42800;53.928;27.662;2023-01-26T01:58:22;100375.25;;;-0.86;100.00
56912;BME280;42800;53.928;27.662;2023-01-26T02:00:48;100375.91;;;-0.69;100.00
56912;BME280;42800;53.928;27.662;2023-01-26T02:03:16;100369.56;;;-0.42;100.00
56912;BME280;42800;53.928;27.662;2023-01-26T02:05:49;100360.91;;;-0.50;100.00
56912;BME280;42800;53.928;27.662;2023-01-26T02:08:18;100366.66;;;-0.31;100.00
56912;BME280;42800;53.928;27.662;2023-01-26T02:10:48;100361.97;;;-0.56;100.00
56912;BME280;42800;53.928;27.662;2023-01-26T02:13:16;100362.16;;;-0.73;100.00
56912;BME280;42800;53.928;27.662;2023-01-26T02:15:43;100355.66;;;-0.77;100.00
56912;BME280;42800;53.928;27.662;2023-01-26T02:18:10;100342.34;;;-0.93;100.00
56912;BME280;42800;53.928;27.662;2023-01-26T02:20:42;100341.53;;;-0.94;100.00
56912;BME280;42800;53.928;27.662;2023-01-26T02:23:18;100335.38;;;-0.89;100.00
56912;BME280;42800;53.928;27.662;2023-01-26T02:28:43;100327.22;;;-1.05;100.00
56912;BME280;42800;53.928;27.662;2023-01-26T02:31:11;100311.97;;;-0.89;100.00
56912;BME280;42800;53.928;27.662;2023-01-26T02:33:38;100310.28;;;-1.00;100.00
56912;BME280;42800;53.928;27.662;2023-01-26T02:36:06;100302.66;;;-0.61;100.00
56912;BME280;42800;53.928;27.662;2023-01-26T02:38:38;100316.66;;;-0.64;100.00
56912;BME280;42800;53.928;27.662;2023-01-26T02:41:07;100324.69;;;-0.74;100.00
56912;BME280;42800;53.928;27.662;2023-01-26T02:43:34;100320.97;;;-0.68;100.00
56912;BME280;42800;53.928;27.662;2023-01-26T02:46:01;100325.50;;;-0.79;100.00
56912;BME280;42800;53.928;27.662;2023-01-26T02:48:27;100321.31;;;-0.49;100.00
56912;BME280;42800;53.928;27.662;2023-01-26T02:51:12;100341.59;;;-0.31;100.00
56912;BME280;42800;53.928;27.662;2023-01-26T02:53:38;100338.94;;;-0.21;100.00
56912;BME280;42800;53.928;27.662;2023-01-26T02:56:05;100335.94;;;-0.25;100.00
56912;BME280;42800;53.928;27.662;2023-01-26T02:58:31;100342.03;;;-0.60;100.00
56912;BME280;42800;53.928;27.662;2023-01-26T03:00:57;100332.06;;;-0.54;100.00
56912;BME280;42800;53.928;27.662;2023-01-26T03:03:26;100336.63;;;-0.60;100.00
56912;BME280;42800;53.928;27.662;2023-01-26T03:06:06;100337.22;;;-0.48;100.00
56912;BME280;42800;53.928;27.662;2023-01-26T03:08:33;100332.41;;;-0.30;100.00
56912;BME280;42800;53.928;27.662;2023-01-26T03:10:59;100325.03;;;-0.60;100.00
56912;BME280;42800;53.928;27.662;2023-01-26T03:13:26;100317.22;;;-0.62;100.00
56912;BME280;42800;53.928;27.662;2023-01-26T03:15:52;100320.75;;;-0.51;100.00
56912;BME280;42800;53.928;27.662;2023-01-26T03:18:21;100316.28;;;-0.25;100.00
56912;BME280;42800;53.928;27.662;2023-01-26T03:21:09;100311.09;;;-0.37;100.00
56912;BME280;42800;53.928;27.662;2023-01-26T03:23:54;100313.81;;;-0.37;100.00
56912;BME280;42800;53.928;27.662;2023-01-26T03:26:53;100316.34;;;-0.05;100.00
56912;BME280;42800;53.928;27.662;2023-01-26T03:29:38;100299.03;;;-0.29;100.00
56912;BME280;42800;53.928;27.662;2023-01-26T03:32:04;100295.78;;;-0.36;100.00
56912;BME280;42800;53.928;27.662;2023-01-26T03:34:31;100294.31;;;-0.64;100.00
56912;BME280;42800;53.928;27.662;2023-01-26T03:36:58;100293.06;;;-0.46;100.00
56912;BME280;42800;53.928;27.662;2023-01-26T03:39:24;100298.53;;;-0.11;100.00
56912;BME280;42800;53.928;27.662;2023-01-26T03:42:08;100299.22;;;-0.56;100.00
56912;BME280;42800;53.928;27.662;2023-01-26T03:44:52;100302.84;;;-0.20;100.00
56912;BME280;42800;53.928;27.662;2023-01-26T03:47:37;100287.69;;;-0.36;100.00
56912;BME280;42800;53.928;27.662;2023-01-26T03:50:21;100295.81;;;-0.11;100.00
56912;BME280;42800;53.928;27.662;2023-01-26T03:53:17;100276.44;;;-0.08;100.00
56912;BME280;42800;53.928;27.662;2023-01-26T03:56:03;100272.59;;;-0.27;100.00
56912;BME280;42800;53.928;27.662;2023-01-26T03:58:43;100268.84;;;-0.21;100.00
56912;BME280;42800;53.928;27.662;2023-01-26T04:01:10;100275.50;;;-0.59;100.00
56912;BME280;42800;53.928;27.662;2023-01-26T04:03:45;100279.66;;;-0.16;100.00
56912;BME280;42800;53.928;27.662;2023-01-26T04:06:30;100274.81;;;-0.19;100.00
56912;BME280;42800;53.928;27.662;2023-01-26T04:09:15;100275.28;;;-0.37;100.00
56912;BME280;42800;53.928;27.662;2023-01-26T04:11:41;100283.91;;;-0.35;100.00
56912;BME280;42800;53.928;27.662;2023-01-26T04:14:09;100291.59;;;-0.69;100.00
56912;BME280;42800;53.928;27.662;2023-01-26T04:16:55;100287.66;;;-0.46;100.00
56912;BME280;42800;53.928;27.662;2023-01-26T04:19:40;100295.50;;;-0.35;100.00
56912;BME280;42800;53.928;27.662;2023-01-26T04:22:24;100302.03;;;-0.15;100.00
56912;BME280;42800;53.928;27.662;2023-01-26T04:24:51;100309.38;;;-0.63;100.00
56912;BME280;42800;53.928;27.662;2023-01-26T04:27:17;100304.06;;;-0.48;100.00
56912;BME280;42800;53.928;27.662;2023-01-26T04:29:44;100299.31;;;-0.20;100.00
56912;BME280;42800;53.928;27.662;2023-01-26T04:32:10;100298.97;;;-0.50;100.00
56912;BME280;42800;53.928;27.662;2023-01-26T04:34:36;100291.75;;;-0.29;100.00
56912;BME280;42800;53.928;27.662;2023-01-26T04:37:02;100293.59;;;-0.44;100.00
56912;BME280;42800;53.928;27.662;2023-01-26T04:39:28;100289.31;;;-0.30;100.00
56912;BME280;42800;53.928;27.662;2023-01-26T04:41:55;100289.03;;;-0.34;100.00
56912;BME280;42800;53.928;27.662;2023-01-26T04:44:22;100280.66;;;-0.37;100.00
56912;BME280;42800;53.928;27.662;2023-01-26T04:46:48;100279.03;;;-0.43;100.00
56912;BME280;42800;53.928;27.662;2023-01-26T04:49:14;100265.56;;;-0.43;100.00
56912;BME280;42800;53.928;27.662;2023-01-26T04:51:40;100270.44;;;-0.30;100.00
56912;BME280;42800;53.928;27.662;2023-01-26T04:54:07;100261.56;;;-0.31;100.00
56912;BME280;42800;53.928;27.662;2023-01-26T04:56:34;100259.47;;;-0.13;100.00
56912;BME280;42800;53.928;27.662;2023-01-26T04:59:05;100272.09;;;-0.24;100.00
56912;BME280;42800;53.928;27.662;2023-01-26T05:01:32;100277.72;;;-0.36;100.00
56912;BME280;42800;53.928;27.662;2023-01-26T05:03:58;100273.38;;;-0.37;100.00
56912;BME280;42800;53.928;27.662;2023-01-26T05:06:25;100274.22;;;-0.31;100.00
56912;BME280;42800;53.928;27.662;2023-01-26T05:08:51;100282.09;;;-0.19;100.00
56912;BME280;42800;53.928;27.662;2023-01-26T05:11:17;100275.53;;;-0.49;100.00
56912;BME280;42800;53.928;27.662;2023-01-26T05:13:44;100261.81;;;-0.27;100.00
56912;BME280;42800;53.928;27.662;2023-01-26T05:16:12;100255.63;;;-0.43;100.00
56912;BME280;42800;53.928;27.662;2023-01-26T05:18:39;100254.78;;;-0.43;100.00
56912;BME280;42800;53.928;27.662;2023-01-26T05:21:05;100250.28;;;-0.22;100.00
56912;BME280;42800;53.928;27.662;2023-01-26T05:23:32;100253.66;;;-0.58;100.00
56912;BME280;42800;53.928;27.662;2023-01-26T05:25:58;100241.28;;;-0.59;100.00
56912;BME280;42800;53.928;27.662;2023-01-26T05:28:25;100238.66;;;-0.38;100.00
56912;BME280;42800;53.928;27.662;2023-01-26T05:30:51;100235.41;;;-0.40;100.00
56912;BME280;42800;53.928;27.662;2023-01-26T05:33:18;100232.44;;;-0.49;100.00
56912;BME280;42800;53.928;27.662;2023-01-26T05:35:46;100229.44;;;-0.58;100.00
56912;BME280;42800;53.928;27.662;2023-01-26T05:38:13;100214.09;;;-0.47;100.00
56912;BME280;42800;53.928;27.662;2023-01-26T05:40:39;100214.88;;;-0.57;100.00
56912;BME280;42800;53.928;27.662;2023-01-26T05:43:05;100221.34;;;-0.58;100.00
56912;BME280;42800;53.928;27.662;2023-01-26T05:45:32;100209.25;;;-0.55;100.00
56912;BME280;42800;53.928;27.662;2023-01-26T05:47:59;100225.63;;;-0.72;100.00
56912;BME280;42800;53.928;27.662;2023-01-26T05:50:26;100210.84;;;-0.59;100.00
56912;BME280;42800;53.928;27.662;2023-01-26T05:52:52;100200.38;;;-0.35;100.00
56912;BME280;42800;53.928;27.662;2023-01-26T05:55:18;100210.59;;;-0.48;100.00
56912;BME280;42800;53.928;27.662;2023-01-26T05:57:45;100214.44;;;-0.23;100.00
56912;BME280;42800;53.928;27.662;2023-01-26T06:00:12;100217.81;;;-0.63;100.00
56912;BME280;42800;53.928;27.662;2023-01-26T06:02:39;100215.94;;;-0.73;100.00
56912;BME280;42800;53.928;27.662;2023-01-26T06:05:06;100197.06;;;-0.68;100.00
56912;BME280;42800;53.928;27.662;2023-01-26T06:07:33;100188.97;;;-0.78;100.00
56912;BME280;42800;53.928;27.662;2023-01-26T06:10:00;100180.69;;;-0.51;100.00
56912;BME280;42800;53.928;27.662;2023-01-26T06:12:26;100184.16;;;-0.61;100.00
56912;BME280;42800;53.928;27.662;2023-01-26T06:14:56;100177.22;;;-0.46;100.00
56912;BME280;42800;53.928;27.662;2023-01-26T06:17:23;100186.06;;;-0.61;100.00
56912;BME280;42800;53.928;27.662;2023-01-26T06:19:49;100183.91;;;-0.59;100.00
56912;BME280;42800;53.928;27.662;2023-01-26T06:22:15;100180.19;;;-0.33;100.00
56912;BME280;42800;53.928;27.662;2023-01-26T06:24:42;100193.41;;;-0.06;100.00
56912;BME280;42800;53.928;27.662;2023-01-26T06:27:11;100207.41;;;-0.19;100.00
56912;BME280;42800;53.928;27.662;2023-01-26T06:29:37;100214.09;;;-0.47;100.00
56912;BME280;42800;53.928;27.662;2023-01-26T06:32:04;100218.69;;;-0.53;100.00
56912;BME280;42800;53.928;27.662;2023-01-26T06:34:31;100215.75;;;-0.36;100.00
56912;BME280;42800;53.928;27.662;2023-01-26T06:36:58;100214.97;;;-0.16;100.00
56912;BME280;42800;53.928;27.662;2023-01-26T06:39:24;100231.41;;;-0.12;100.00
56912;BME280;42800;53.928;27.662;2023-01-26T06:41:51;100237.28;;;-0.46;100.00
56912;BME280;42800;53.928;27.662;2023-01-26T06:44:17;100221.94;;;-0.45;100.00
56912;BME280;42800;53.928;27.662;2023-01-26T06:46:43;100213.88;;;-0.25;100.00
56912;BME280;42800;53.928;27.662;2023-01-26T06:49:09;100213.38;;;-0.07;100.00
56912;BME280;42800;53.928;27.662;2023-01-26T06:51:45;100217.38;;;-0.30;100.00
56912;BME280;42800;53.928;27.662;2023-01-26T06:54:13;100207.16;;;-0.22;100.00
56912;BME280;42800;53.928;27.662;2023-01-26T06:56:40;100214.94;;;-0.46;100.00
56912;BME280;42800;53.928;27.662;2023-01-26T06:59:07;100201.13;;;-0.65;100.00
56912;BME280;42800;53.928;27.662;2023-01-26T07:01:37;100195.03;;;0.06;100.00
56912;BME280;42800;53.928;27.662;2023-01-26T07:04:04;100209.31;;;-0.09;100.00
56912;BME280;42800;53.928;27.662;2023-01-26T07:06:30;100215.53;;;-0.09;100.00
56912;BME280;42800;53.928;27.662;2023-01-26T07:08:57;100219.03;;;0.07;100.00
56912;BME280;42800;53.928;27.662;2023-01-26T07:11:23;100233.53;;;-0.40;100.00
56912;BME280;42800;53.928;27.662;2023-01-26T07:13:50;100226.22;;;-0.60;100.00
56912;BME280;42800;53.928;27.662;2023-01-26T07:16:17;100209.56;;;-0.11;100.00
56912;BME280;42800;53.928;27.662;2023-01-26T07:18:44;100214.97;;;-0.16;100.00
56912;BME280;42800;53.928;27.662;2023-01-26T07:21:12;100221.44;;;-0.22;100.00
56912;BME280;42800;53.928;27.662;2023-01-26T07:23:39;100222.22;;;-0.32;100.00
56912;BME280;42800;53.928;27.662;2023-01-26T07:26:05;100220.22;;;-0.67;100.00
56912;BME280;42800;53.928;27.662;2023-01-26T07:28:32;100205.25;;;-0.32;100.00
56912;BME280;42800;53.928;27.662;2023-01-26T07:30:59;100206.03;;;-0.42;100.00
56912;BME280;42800;53.928;27.662;2023-01-26T07:33:27;100193.34;;;-0.52;100.00
56912;BME280;42800;53.928;27.662;2023-01-26T07:35:53;100183.38;;;-0.61;100.00
56912;BME280;42800;53.928;27.662;2023-01-26T07:38:20;100170.75;;;-0.35;100.00
56912;BME280;42800;53.928;27.662;2023-01-26T07:40:46;100176.13;;;-0.40;100.00
56912;BME280;42800;53.928;27.662;2023-01-26T07:43:13;100168.88;;;-0.04;100.00
56912;BME280;42800;53.928;27.662;2023-01-26T07:45:43;100168.31;;;0.19;100.00
56912;BME280;42800;53.928;27.662;2023-01-26T07:48:09;100187.75;;;0.01;100.00
56912;BME280;42800;53.928;27.662;2023-01-26T07:50:36;100182.84;;;-0.48;100.00
56912;BME280;42800;53.928;27.662;2023-01-26T07:53:02;100172.84;;;-0.68;100.00
56912;BME280;42800;53.928;27.662;2023-01-26T07:55:29;100157.31;;;-0.20;100.00
56912;BME280;42800;53.928;27.662;2023-01-26T07:57:55;100169.34;;;-0.68;100.00
56912;BME280;42800;53.928;27.662;2023-01-26T08:00:22;100157.50;;;-0.62;100.00
56912;BME280;42800;53.928;27.662;2023-01-26T08:02:48;100143.81;;;-0.35;100.00
56912;BME280;42800;53.928;27.662;2023-01-26T08:05:15;100148.91;;;-0.34;100.00
56912;BME280;42800;53.928;27.662;2023-01-26T08:07:42;100149.44;;;-0.37;100.00
56912;BME280;42800;53.928;27.662;2023-01-26T08:10:09;100142.72;;;0.02;100.00
56912;BME280;42800;53.928;27.662;2023-01-26T08:12:37;100171.00;;;-0.37;100.00
56912;BME280;42800;53.928;27.662;2023-01-26T08:15:04;100179.59;;;-0.55;100.00
56912;BME280;42800;53.928;27.662;2023-01-26T08:17:30;100188.28;;;-0.12;100.00
56912;BME280;42800;53.928;27.662;2023-01-26T08:19:58;100203.94;;;-0.09;100.00
56912;BME280;42800;53.928;27.662;2023-01-26T08:22:25;100204.75;;;0.02;100.00
56912;BME280;42800;53.928;27.662;2023-01-26T08:24:51;100216.28;;;-0.34;100.00
56912;BME280;42800;53.928;27.662;2023-01-26T08:27:18;100217.94;;;0.13;100.00
56912;BME280;42800;53.928;27.662;2023-01-26T08:29:44;100230.84;;;-0.40;100.00
56912;BME280;42800;53.928;27.662;2023-01-26T08:32:10;100233.53;;;-0.40;100.00
56912;BME280;42800;53.928;27.662;2023-01-26T08:34:37;100234.03;;;-0.48;100.00
56912;BME280;42800;53.928;27.662;2023-01-26T08:37:03;100225.72;;;-0.36;100.00
56912;BME280;42800;53.928;27.662;2023-01-26T08:39:29;100237.84;;;-0.29;100.00
56912;BME280;42800;53.928;27.662;2023-01-26T08:41:56;100231.97;;;0.26;100.00
56912;BME280;42800;53.928;27.662;2023-01-26T08:44:22;100244.88;;;0.64;100.00
56912;BME280;42800;53.928;27.662;2023-01-26T08:46:48;100248.41;;;0.70;100.00
56912;BME280;42800;53.928;27.662;2023-01-26T08:49:15;100255.16;;;0.52;100.00
56912;BME280;42800;53.928;27.662;2023-01-26T08:51:41;100251.06;;;0.75;100.00
56912;BME280;42800;53.928;27.662;2023-01-26T08:54:07;100232.13;;;1.01;100.00
56912;BME280;42800;53.928;27.662;2023-01-26T08:56:33;100208.94;;;0.84;100.00
56912;BME280;42800;53.928;27.662;2023-01-26T08:59:01;100168.91;;;1.07;100.00
56912;BME280;42800;53.928;27.662;2023-01-26T09:01:27;100125.00;;;0.81;100.00
56912;BME280;42800;53.928;27.662;2023-01-26T09:03:53;100105.84;;;0.77;100.00
56912;BME280;42800;53.928;27.662;2023-01-26T09:06:21;100092.41;;;1.16;100.00
56912;BME280;42800;53.928;27.662;2023-01-26T09:08:47;100033.41;;;0.94;100.00
56912;BME280;42800;53.928;27.662;2023-01-26T09:11:13;100002.88;;;0.99;100.00
56912;BME280;42800;53.928;27.662;2023-01-26T09:13:39;99982.59;;;1.02;100.00
56912;BME280;42800;53.928;27.662;2023-01-26T09:16:11;99982.03;;;0.65;100.00
56912;BME280;42800;53.928;27.662;2023-01-26T09:18:38;99970.34;;;0.80;100.00
56912;BME280;42800;53.928;27.662;2023-01-26T09:21:05;99964.75;;;0.66;100.00
56912;BME280;42800;53.928;27.662;2023-01-26T09:23:32;99959.16;;;0.53;100.00
56912;BME280;42800;53.928;27.662;2023-01-26T09:25:59;99954.03;;;0.96;100.00
56912;BME280;42800;53.928;27.662;2023-01-26T09:28:25;99899.38;;;0.75;100.00
56912;BME280;42800;53.928;27.662;2023-01-26T09:30:51;99888.69;;;0.59;100.00
56912;BME280;42800;53.928;27.662;2023-01-26T09:33:18;99900.91;;;0.86;100.00
56912;BME280;42800;53.928;27.662;2023-01-26T09:35:46;99861.72;;;0.93;100.00
56912;BME280;42800;53.928;27.662;2023-01-26T09:38:13;99805.19;;;1.02;100.00
56912;BME280;42800;53.928;27.662;2023-01-26T09:40:44;99784.09;;;0.80;100.00
56912;BME280;42800;53.928;27.662;2023-01-26T09:43:23;99788.00;;;0.93;100.00
56912;BME280;42800;53.928;27.662;2023-01-26T09:45:56;99764.31;;;1.14;100.00
56912;BME280;42800;53.928;27.662;2023-01-26T09:48:32;99708.34;;;0.96;100.00
56912;BME280;42800;53.928;27.662;2023-01-26T09:51:03;99666.66;;;1.07;100.00
56912;BME280;42800;53.928;27.662;2023-01-26T09:53:37;99672.25;;;1.10;100.00
56912;BME280;42800;53.928;27.662;2023-01-26T09:56:07;99671.88;;;0.74;100.00
56912;BME280;42800;53.928;27.662;2023-01-26T09:58:36;99677.31;;;0.45;100.00
56912;BME280;42800;53.928;27.662;2023-01-26T10:01:08;99721.13;;;0.61;100.00
56912;BME280;42800;53.928;27.662;2023-01-26T10:03:43;99744.91;;;0.83;100.00
56912;BME280;42800;53.928;27.662;2023-01-26T10:06:17;99705.22;;;0.83;100.00
56912;BME280;42800;53.928;27.662;2023-01-26T10:08:47;99673.44;;;1.23;100.00
56912;BME280;42800;53.928;27.662;2023-01-26T10:11:17;99691.88;;;0.97;100.00
56912;BME280;42800;53.928;27.662;2023-01-26T10:13:50;99661.66;;;0.71;100.00
56912;BME280;42800;53.928;27.662;2023-01-26T10:16:19;99694.38;;;0.40;100.00
56912;BME280;42800;53.928;27.662;2023-01-26T10:18:52;99737.66;;;0.20;100.00
56912;BME280;42800;53.928;27.662;2023-01-26T10:21:24;99788.41;;;0.81;100.00
56912;BME280;42800;53.928;27.662;2023-01-26T10:23:51;99796.72;;;0.85;100.00
56912;BME280;42800;53.928;27.662;2023-01-26T10:26:19;99744.50;;;0.41;100.00
56912;BME280;42800;53.928;27.662;2023-01-26T10:28:47;99801.69;;;0.43;100.00
56912;BME280;42800;53.928;27.662;2023-01-26T10:31:16;99852.69;;;0.01;100.00
56912;BME280;42800;53.928;27.662;2023-01-26T10:33:48;99936.50;;;0.54;100.00
56912;BME280;42800;53.928;27.662;2023-01-26T10:36:15;99948.97;;;0.44;100.00
56912;BME280;42800;53.928;27.662;2023-01-26T10:38:43;99916.59;;;0.44;100.00
56912;BME280;42800;53.928;27.662;2023-01-26T10:41:27;99947.94;;;0.35;100.00
56912;BME280;42800;53.928;27.662;2023-01-26T10:43:55;99952.63;;;0.14;100.00
56912;BME280;42800;53.928;27.662;2023-01-26T10:46:33;99954.06;;;0.51;100.00
56912;BME280;42800;53.928;27.662;2023-01-26T10:49:01;99926.22;;;0.11;100.00
56912;BME280;42800;53.928;27.662;2023-01-26T10:51:30;99944.78;;;0.13;100.00
56912;BME280;42800;53.928;27.662;2023-01-26T10:54:22;99974.78;;;0.61;100.00
56912;BME280;42800;53.928;27.662;2023-01-26T10:56:54;99940.75;;;0.65;100.00
56912;BME280;42800;53.928;27.662;2023-01-26T10:59:27;99907.38;;;0.01;100.00
56912;BME280;42800;53.928;27.662;2023-01-26T11:01:56;99989.31;;;0.10;100.00
56912;BME280;42800;53.928;27.662;2023-01-26T11:04:23;100020.91;;;-0.06;100.00
56912;BME280;42800;53.928;27.662;2023-01-26T11:06:51;100063.41;;;0.23;100.00
56912;BME280;42800;53.928;27.662;2023-01-26T11:09:19;100096.06;;;0.21;100.00
56912;BME280;42800;53.928;27.662;2023-01-26T11:11:59;100098.44;;;0.43;100.00
56912;BME280;42800;53.928;27.662;2023-01-26T11:14:26;100106.28;;;0.19;100.00
56912;BME280;42800;53.928;27.662;2023-01-26T11:16:58;100127.03;;;0.44;100.00
56912;BME280;42800;53.928;27.662;2023-01-26T11:19:36;100112.91;;;0.63;100.00
56912;BME280;42800;53.928;27.662;2023-01-26T11:22:10;100097.97;;;-0.05;100.00
56912;BME280;42800;53.928;27.662;2023-01-26T11:24:42;100116.00;;;0.26;100.00
56912;BME280;42800;53.928;27.662;2023-01-26T11:27:34;100122.13;;;0.46;100.00
56912;BME280;42800;53.928;27.662;2023-01-26T11:30:18;100122.22;;;0.21;100.00
56912;BME280;42800;53.928;27.662;2023-01-26T11:32:54;100120.53;;;0.45;100.00
56912;BME280;42800;53.928;27.662;2023-01-26T11:35:29;100109.22;;;0.38;100.00
56912;BME280;42800;53.928;27.662;2023-01-26T11:38:06;100106.38;;;0.79;100.00
56912;BME280;42800;53.928;27.662;2023-01-26T11:40:40;100084.31;;;0.67;100.00
56912;BME280;42800;53.928;27.662;2023-01-26T11:46:14;100098.56;;;0.73;100.00
56912;BME280;42800;53.928;27.662;2023-01-26T11:48:53;100077.31;;;0.56;100.00
56912;BME280;42800;53.928;27.662;2023-01-26T11:51:36;100086.91;;;0.17;100.00
56912;BME280;42800;53.928;27.662;2023-01-26T11:54:27;100079.66;;;0.78;100.00
56912;BME280;42800;53.928;27.662;2023-01-26T11:57:03;100066.91;;;0.88;100.00
56912;BME280;42800;53.928;27.662;2023-01-26T11:59:35;100052.00;;;1.01;100.00
56912;BME280;42800;53.928;27.662;2023-01-26T12:02:16;100027.47;;;0.98;100.00
56912;BME280;42800;53.928;27.662;2023-01-26T12:04:47;99998.06;;;0.91;100.00
56912;BME280;42800;53.928;27.662;2023-01-26T12:07:16;99981.88;;;0.91;100.00
56912;BME280;42800;53.928;27.662;2023-01-26T12:09:48;99977.22;;;0.57;100.00
56912;BME280;42800;53.928;27.662;2023-01-26T12:12:21;99998.03;;;0.96;100.00
56912;BME280;42800;53.928;27.662;2023-01-26T12:14:52;99976.09;;;1.03;100.00
56912;BME280;42800;53.928;27.662;2023-01-26T12:17:42;99953.28;;;0.85;100.00
56912;BME280;42800;53.928;27.662;2023-01-26T12:20:23;99949.28;;;0.38;100.00
56912;BME280;42800;53.928;27.662;2023-01-26T12:22:54;99997.78;;;0.48;100.00
56912;BME280;42800;53.928;27.662;2023-01-26T12:25:27;100018.00;;;0.45;100.00
56912;BME280;42800;53.928;27.662;2023-01-26T12:27:59;100025.13;;;0.81;100.00
56912;BME280;42800;53.928;27.662;2023-01-26T12:30:34;99992.47;;;0.28;100.00
56912;BME280;42800;53.928;27.662;2023-01-26T12:33:01;100012.81;;;0.64;100.00
56912;BME280;42800;53.928;27.662;2023-01-26T12:35:38;100009.75;;;0.16;100.00
56912;BME280;42800;53.928;27.662;2023-01-26T12:38:13;100028.78;;;0.51;100.00
56912;BME280;42800;53.928;27.662;2023-01-26T12:40:52;100018.38;;;0.23;100.00
56912;BME280;42800;53.928;27.662;2023-01-26T12:43:35;100035.94;;;0.16;100.00
56912;BME280;42800;53.928;27.662;2023-01-26T12:46:04;100033.47;;;0.19;100.00
56912;BME280;42800;53.928;27.662;2023-01-26T12:48:37;100056.63;;;0.41;100.00
56912;BME280;42800;53.928;27.662;2023-01-26T12:51:09;100069.59;;;0.29;100.00
56912;BME280;42800;53.928;27.662;2023-01-26T12:53:44;100057.16;;;0.38;100.00